Time;durP1;ratioP1;P1;durP2;ratioP2;P2;SDS_P1;SDS_P2;PMS_P1;PMS_P2;Temp;Humidity;BMP_temperature;BMP_pressure;BME280_temperature;BME280_humidity;BME280_pressure;Samples;Min_cycle;Max_cycle;Signal;HPM_P1;HPM_P2
2021/07/04 00:01:51;;;;;;;15.82;14.00;;;24.70;99.90;;;;;;4956802;29;20051;-96
2021/07/04 00:04:20;;;;;;;16.57;13.83;;;24.70;99.90;;;;;;4933794;29;20035;-95
2021/07/04 00:07:05;;;;;;;16.00;13.90;;;24.70;99.90;;;;;;4943500;29;20226;-96
2021/07/04 00:09:34;;;;;;;17.02;14.25;;;24.70;99.90;;;;;;4913982;29;20027;-96
2021/07/04 00:12:27;;;;;;;;;;;;;;;;;;;;;
2021/07/04 00:15:14;;;;;;;;;;;;;;;;;;;;;
2021/07/04 00:17:59;;;;;;;18.65;15.20;;;24.70;99.90;;;;;;4930380;29;20055;-96
2021/07/04 00:21:09;;;;;;;;;;;;;;;;;;;;;
2021/07/04 00:23:41;;;;;;;18.70;15.38;;;24.70;99.90;;;;;;4958821;29;20051;-96
2021/07/04 00:26:18;;;;;;;19.40;15.40;;;24.70;99.90;;;;;;4937968;29;20063;-95
2021/07/04 00:28:45;;;;;;;18.20;14.82;;;24.70;99.90;;;;;;4937966;29;20040;-94
2021/07/04 00:31:11;;;;;;;17.92;15.95;;;24.70;99.90;;;;;;4936448;29;20063;-96
2021/07/04 00:33:39;;;;;;;19.13;15.57;;;24.70;99.90;;;;;;4936841;29;20028;-95
2021/07/04 00:36:12;;;;;;;18.88;15.85;;;24.70;99.90;;;;;;4952678;29;20032;-96
2021/07/04 00:38:50;;;;;;;19.40;15.60;;;24.70;99.90;;;;;;4922625;29;20035;-94
2021/07/04 00:41:27;;;;;;;18.48;15.60;;;24.70;99.90;;;;;;4940840;29;20028;-96
2021/07/04 00:44:04;;;;;;;19.42;16.00;;;24.70;99.90;;;;;;4939364;29;20038;-95
2021/07/04 00:46:31;;;;;;;17.88;15.18;;;24.70;99.90;;;;;;4922662;29;20138;-96
2021/07/04 00:48:58;;;;;;;17.67;15.32;;;24.70;99.90;;;;;;4928617;29;20083;-95
2021/07/04 00:51:25;;;;;;;21.05;16.80;;;24.70;99.90;;;;;;4930368;29;20031;-96
2021/07/04 00:53:51;;;;;;;19.00;16.00;;;24.70;99.90;;;;;;4946057;29;20028;-94
2021/07/04 00:56:17;;;;;;;19.52;16.05;;;24.70;99.90;;;;;;4929249;29;20099;-95
2021/07/04 00:58:43;;;;;;;19.15;16.05;;;24.70;99.90;;;;;;4930471;29;20034;-95
2021/07/04 01:01:08;;;;;;;19.77;16.48;;;24.70;99.90;;;;;;4948642;29;20024;-95
2021/07/04 01:03:34;;;;;;;18.38;15.95;;;24.70;99.90;;;;;;4932424;29;20437;-95
2021/07/04 01:06:00;;;;;;;19.48;16.58;;;24.70;99.90;;;;;;4932019;29;20033;-95
2021/07/04 01:08:29;;;;;;;16.85;14.65;;;24.70;99.90;;;;;;4929827;29;20028;-96
2021/07/04 01:10:55;;;;;;;18.15;15.40;;;24.70;99.90;;;;;;4931583;29;20027;-94
2021/07/04 01:13:21;;;;;;;19.25;16.30;;;24.70;99.90;;;;;;4952034;29;20087;-95
2021/07/04 01:15:47;;;;;;;18.08;14.85;;;24.70;99.90;;;;;;4931645;29;20035;-96
2021/07/04 01:18:13;;;;;;;19.52;15.02;;;24.70;99.90;;;;;;4946808;29;20027;-96
2021/07/04 01:20:40;;;;;;;17.08;15.15;;;24.70;99.90;;;;;;4944983;29;20028;-96
2021/07/04 01:23:15;;;;;;;17.88;15.48;;;24.70;99.90;;;;;;4927300;29;20031;-96
2021/07/04 01:25:46;;;;;;;18.67;15.60;;;24.70;99.90;;;;;;4943865;29;20032;-95
2021/07/04 01:28:14;;;;;;;19.58;16.30;;;24.70;99.90;;;;;;4942820;29;20030;-96
2021/07/04 01:30:41;;;;;;;18.33;15.73;;;24.70;99.90;;;;;;4926824;29;20032;-96
2021/07/04 01:33:07;;;;;;;16.52;14.77;;;24.70;99.90;;;;;;4943747;29;20038;-96
2021/07/04 01:35:33;;;;;;;17.70;15.35;;;24.70;99.90;;;;;;4926734;29;20031;-95
2021/07/04 01:37:59;;;;;;;18.15;16.00;;;24.70;99.90;;;;;;4943952;29;20032;-96
2021/07/04 01:40:25;;;;;;;19.17;16.73;;;24.70;99.90;;;;;;4930077;29;20031;-95
2021/07/04 01:42:51;;;;;;;18.88;16.13;;;24.70;99.90;;;;;;4927452;29;20462;-95
2021/07/04 01:45:19;;;;;;;18.70;15.88;;;24.70;99.90;;;;;;4910380;29;20151;-95
2021/07/04 01:47:46;;;;;;;17.80;15.38;;;24.70;99.90;;;;;;4925560;29;20038;-96
2021/07/04 01:50:17;;;;;;;17.10;14.80;;;24.70;99.90;;;;;;4911534;29;20042;-96
2021/07/04 01:52:45;;;;;;;18.63;15.60;;;24.70;99.90;;;;;;4927192;29;20028;-96
2021/07/04 01:55:13;;;;;;;18.00;15.38;;;24.70;99.90;;;;;;4944517;29;20039;-95
2021/07/04 01:57:39;;;;;;;17.10;15.25;;;24.70;99.90;;;;;;4944087;29;20051;-96
2021/07/04 02:00:09;;;;;;;16.92;14.80;;;24.70;99.90;;;;;;4928080;29;20020;-95
2021/07/04 02:02:38;;;;;;;17.13;14.88;;;24.70;99.90;;;;;;4945721;29;20098;-95
2021/07/04 02:05:05;;;;;;;17.85;14.98;;;24.70;99.90;;;;;;4928362;29;20126;-96
2021/07/04 02:07:30;;;;;;;16.67;14.70;;;24.70;99.90;;;;;;4947170;29;20032;-95
2021/07/04 02:09:56;;;;;;;18.77;15.60;;;24.70;99.90;;;;;;4930638;29;20110;-95
2021/07/04 02:12:23;;;;;;;18.58;15.38;;;24.70;99.90;;;;;;4947066;29;20027;-95
2021/07/04 02:14:49;;;;;;;17.50;15.25;;;24.70;99.90;;;;;;4943921;29;20036;-96
2021/07/04 02:17:14;;;;;;;17.25;14.73;;;24.70;99.90;;;;;;4950345;29;20066;-96
2021/07/04 02:19:41;;;;;;;18.05;15.18;;;24.70;99.90;;;;;;4958495;29;20016;-95
2021/07/04 02:22:10;;;;;;;16.38;14.43;;;24.70;99.90;;;;;;4935472;29;20122;-96
2021/07/04 02:24:37;;;;;;;16.98;14.77;;;24.70;99.90;;;;;;4943441;29;20031;-96
2021/07/04 02:27:04;;;;;;;16.77;13.82;;;24.70;99.90;;;;;;4941752;29;20023;-93
2021/07/04 02:29:29;;;;;;;16.80;14.40;;;24.70;99.90;;;;;;4925741;29;20079;-96
2021/07/04 02:31:56;;;;;;;18.67;15.48;;;24.70;99.90;;;;;;4925696;29;20031;-96
2021/07/04 02:34:21;;;;;;;17.40;14.52;;;24.70;99.90;;;;;;4925937;29;20038;-95
2021/07/04 02:36:47;;;;;;;16.73;14.68;;;24.70;99.90;;;;;;4940738;29;20027;-95
2021/07/04 02:39:14;;;;;;;15.60;14.00;;;24.70;99.90;;;;;;4923511;29;20031;-95
2021/07/04 02:41:44;;;;;;;16.00;13.93;;;24.70;99.90;;;;;;4924011;29;20023;-94
2021/07/04 02:44:10;;;;;;;16.23;14.30;;;24.70;99.90;;;;;;4923673;29;20028;-95
2021/07/04 02:46:37;;;;;;;17.00;14.20;;;24.70;99.90;;;;;;4923317;29;20036;-95
2021/07/04 02:49:07;;;;;;;16.15;14.23;;;24.70;99.90;;;;;;4941082;29;20032;-96
2021/07/04 02:51:33;;;;;;;17.35;14.60;;;24.70;99.90;;;;;;4941913;29;20031;-96
2021/07/04 02:53:59;;;;;;;16.70;14.27;;;24.70;99.90;;;;;;4924709;29;20024;-96
2021/07/04 02:56:25;;;;;;;16.05;13.93;;;24.70;99.90;;;;;;4941348;29;20384;-95
2021/07/04 02:58:50;;;;;;;15.73;13.88;;;24.70;99.90;;;;;;4942796;29;20042;-95
2021/07/04 03:01:16;;;;;;;15.80;13.75;;;24.70;99.90;;;;;;4924366;29;20032;-96
2021/07/04 03:03:45;;;;;;;17.42;13.93;;;24.70;99.90;;;;;;4942883;29;20055;-96
2021/07/04 03:06:11;;;;;;;14.88;13.30;;;24.70;99.90;;;;;;4926812;29;20051;-96
2021/07/04 03:08:37;;;;;;;15.18;13.32;;;24.70;99.90;;;;;;4932107;29;20036;-95
2021/07/04 03:11:04;;;;;;;16.00;13.52;;;24.70;99.90;;;;;;4937554;29;20028;-96
2021/07/04 03:13:29;;;;;;;14.13;12.63;;;24.70;99.90;;;;;;4938756;29;20051;-96
2021/07/04 03:15:55;;;;;;;14.65;12.93;;;24.70;99.90;;;;;;4956409;29;20028;-95
2021/07/04 03:18:23;;;;;;;15.00;13.35;;;24.70;99.90;;;;;;4933269;29;20028;-95
2021/07/04 03:20:52;;;;;;;14.68;13.18;;;24.70;99.90;;;;;;4945807;29;20115;-96
2021/07/04 03:23:18;;;;;;;16.58;13.80;;;24.70;99.90;;;;;;4947273;29;20058;-96
2021/07/04 03:25:44;;;;;;;16.63;14.00;;;24.70;99.90;;;;;;4931375;29;20048;-96
2021/07/04 03:28:13;;;;;;;15.18;12.98;;;24.70;99.90;;;;;;4936775;29;20028;-93
2021/07/04 03:30:39;;;;;;;15.68;13.90;;;24.70;99.90;;;;;;4954020;29;20056;-95
2021/07/04 03:33:04;;;;;;;15.73;13.13;;;24.60;99.90;;;;;;4929064;29;20024;-96
2021/07/04 03:35:30;;;;;;;15.77;13.18;;;24.60;99.90;;;;;;4927227;29;20039;-96
2021/07/04 03:37:56;;;;;;;14.30;12.80;;;24.60;99.90;;;;;;4941926;29;20101;-96
2021/07/04 03:40:22;;;;;;;14.70;12.85;;;24.60;99.90;;;;;;4924310;29;20425;-96
2021/07/04 03:42:49;;;;;;;14.88;12.50;;;24.70;99.90;;;;;;4928688;29;20039;-96
2021/07/04 03:45:15;;;;;;;15.38;12.50;;;24.60;99.90;;;;;;4940929;29;20036;-96
2021/07/04 03:47:41;;;;;;;14.40;12.73;;;24.60;99.90;;;;;;4941045;29;20032;-96
2021/07/04 03:50:08;;;;;;;13.55;11.73;;;24.60;99.90;;;;;;4924820;29;20069;-96
2021/07/04 03:52:33;;;;;;;14.43;12.55;;;24.70;99.90;;;;;;4925205;29;20035;-96
2021/07/04 03:54:59;;;;;;;14.75;13.20;;;24.60;99.90;;;;;;4924762;29;20092;-96
2021/07/04 03:57:27;;;;;;;14.60;12.82;;;24.60;99.90;;;;;;4925199;29;20119;-96
2021/07/04 03:59:58;;;;;;;14.38;12.43;;;24.60;99.90;;;;;;4925856;29;20028;-96
2021/07/04 04:02:25;;;;;;;13.45;11.95;;;24.60;99.90;;;;;;4924602;29;20036;-96
2021/07/04 04:04:55;;;;;;;13.38;11.90;;;24.60;99.90;;;;;;4925158;29;20036;-96
2021/07/04 04:07:22;;;;;;;14.10;12.32;;;24.60;99.90;;;;;;4943058;29;20028;-95
2021/07/04 04:09:49;;;;;;;12.27;10.98;;;24.60;99.90;;;;;;4942455;29;20098;-95
2021/07/04 04:12:15;;;;;;;12.70;11.27;;;24.60;99.90;;;;;;4939323;29;20079;-93
2021/07/04 04:14:41;;;;;;;13.85;11.73;;;24.60;99.90;;;;;;4922957;29;20028;-96
2021/07/04 04:17:09;;;;;;;11.98;10.18;;;24.60;99.90;;;;;;4922980;29;20067;-95
2021/07/04 04:19:35;;;;;;;11.85;10.60;;;24.60;99.90;;;;;;4907622;29;20028;-95
2021/07/04 04:22:01;;;;;;;12.57;10.80;;;24.70;99.90;;;;;;4923697;29;20035;-96
2021/07/04 04:24:27;;;;;;;11.98;10.45;;;24.60;99.90;;;;;;4922927;29;20038;-96
2021/07/04 04:26:53;;;;;;;10.95;9.85;;;24.60;99.90;;;;;;4925665;29;20046;-96
2021/07/04 04:29:19;;;;;;;12.02;10.35;;;24.60;99.90;;;;;;4941764;29;20466;-95
2021/07/04 04:31:46;;;;;;;12.93;10.52;;;24.70;99.90;;;;;;4927631;29;20024;-96
2021/07/04 04:34:15;;;;;;;12.15;10.07;;;24.60;99.90;;;;;;4933307;29;20035;-95
2021/07/04 04:36:46;;;;;;;10.82;9.73;;;24.60;99.90;;;;;;4951286;29;20031;-96
2021/07/04 04:39:12;;;;;;;11.38;10.18;;;24.70;99.90;;;;;;4931343;29;20385;-96
2021/07/04 04:41:38;;;;;;;10.18;9.13;;;24.60;99.90;;;;;;4929516;29;20035;-96
2021/07/04 04:44:06;;;;;;;10.82;9.43;;;24.60;99.90;;;;;;4929827;29;20118;-96
2021/07/04 04:46:32;;;;;;;10.38;8.75;;;24.60;99.90;;;;;;4929448;29;20040;-96
2021/07/04 04:49:01;;;;;;;9.70;8.70;;;24.60;99.90;;;;;;4928874;29;20101;-95
2021/07/04 04:51:26;;;;;;;10.15;9.00;;;24.60;99.90;;;;;;4927350;29;20035;-96
2021/07/04 04:53:55;;;;;;;10.48;9.10;;;24.60;99.90;;;;;;4928469;29;20032;-96
2021/07/04 04:56:21;;;;;;;9.73;8.48;;;24.60;99.90;;;;;;4928589;29;20079;-95
2021/07/04 04:58:47;;;;;;;9.18;8.27;;;24.70;99.90;;;;;;4913513;29;20488;-96
2021/07/04 05:01:14;;;;;;;9.75;8.77;;;24.70;99.90;;;;;;4929818;29;20107;-96
2021/07/04 05:03:40;;;;;;;9.45;8.48;;;24.60;99.90;;;;;;4947449;29;20032;-95
2021/07/04 05:06:05;;;;;;;9.32;8.32;;;24.70;99.90;;;;;;4929868;29;20035;-95
2021/07/04 05:08:32;;;;;;;9.80;7.90;;;24.70;99.90;;;;;;4945626;29;20394;-96
2021/07/04 05:11:00;;;;;;;9.00;8.05;;;24.70;99.90;;;;;;4929181;29;20035;-95
2021/07/04 05:13:26;;;;;;;9.25;8.20;;;24.70;99.90;;;;;;4930301;29;20028;-96
2021/07/04 05:15:52;;;;;;;8.50;7.60;;;24.70;99.90;;;;;;4930305;29;20066;-95
2021/07/04 05:18:18;;;;;;;8.55;7.65;;;24.70;99.90;;;;;;4931515;29;20072;-96
2021/07/04 05:20:43;;;;;;;8.70;7.78;;;24.70;99.90;;;;;;4932066;29;20046;-95
2021/07/04 05:23:09;;;;;;;8.43;7.43;;;24.70;99.90;;;;;;4931675;29;20058;-95
2021/07/04 05:25:37;;;;;;;7.32;6.60;;;24.70;99.90;;;;;;4931932;29;20153;-96
2021/07/04 05:28:03;;;;;;;7.60;6.82;;;24.70;99.90;;;;;;4929643;29;20031;-96
2021/07/04 05:30:29;;;;;;;8.02;7.03;;;24.70;99.90;;;;;;4943985;29;20027;-96
2021/07/04 05:33:04;;;;;;;6.80;6.10;;;24.70;99.90;;;;;;4957801;29;20031;-96
2021/07/04 05:35:30;;;;;;;7.60;6.57;;;24.80;99.90;;;;;;4944588;29;20052;-95
2021/07/04 05:38:04;;;;;;;7.53;6.18;;;24.80;99.90;;;;;;5092785;23;20061;-96
2021/07/04 05:40:33;;;;;;;6.28;5.57;;;24.80;99.90;;;;;;5421170;23;20024;-93
2021/07/04 05:43:01;;;;;;;6.85;6.18;;;24.80;99.90;;;;;;5230944;23;20040;-92
2021/07/04 05:51:35;;;;;;;5.40;4.90;;;24.90;99.90;;;;;;5080075;23;20076;-95
2021/07/04 05:54:02;;;;;;;5.97;5.38;;;24.80;99.90;;;;;;4919888;29;20044;-96
2021/07/04 05:56:28;;;;;;;5.53;4.88;;;24.80;99.90;;;;;;4917170;29;20032;-95
2021/07/04 05:58:54;;;;;;;5.35;4.75;;;24.80;99.90;;;;;;4914909;29;20092;-96
2021/07/04 06:01:19;;;;;;;5.32;4.70;;;24.80;99.90;;;;;;4905644;29;20025;-95
2021/07/04 06:03:45;;;;;;;5.13;4.63;;;24.80;99.90;;;;;;4887117;29;20036;-95
2021/07/04 06:06:21;;;;;;;5.50;4.72;;;24.80;99.90;;;;;;4910912;29;20028;-95
2021/07/04 06:08:48;;;;;;;5.25;4.72;;;24.80;99.90;;;;;;4913230;29;20040;-95
2021/07/04 06:11:14;;;;;;;5.15;4.65;;;24.80;99.90;;;;;;4910772;29;20029;-96
2021/07/04 06:13:40;;;;;;;4.88;4.47;;;24.80;99.90;;;;;;4910010;29;20025;-95
2021/07/04 06:16:07;;;;;;;5.40;4.78;;;24.80;99.90;;;;;;4912479;29;20450;-96
2021/07/04 06:18:35;;;;;;;5.10;4.57;;;24.90;99.90;;;;;;4912400;29;20029;-94
2021/07/04 06:21:05;;;;;;;4.68;4.20;;;24.90;99.90;;;;;;4912614;29;20075;-96
2021/07/04 06:23:31;;;;;;;5.10;4.60;;;24.80;99.90;;;;;;4916789;29;20024;-96
2021/07/04 06:26:00;;;;;;;5.38;4.85;;;24.80;99.90;;;;;;4915460;29;20017;-96
2021/07/04 06:28:28;;;;;;;5.60;5.00;;;24.90;99.90;;;;;;4911862;29;20061;-96
2021/07/04 06:30:55;;;;;;;5.13;4.63;;;24.90;99.90;;;;;;4912771;29;20061;-96
2021/07/04 06:33:21;;;;;;;5.18;4.60;;;24.90;99.90;;;;;;4908592;29;20033;-95
2021/07/04 06:35:49;;;;;;;4.70;4.30;;;24.90;99.90;;;;;;4908806;29;20360;-96
2021/07/04 06:38:15;;;;;;;5.10;4.60;;;24.90;99.90;;;;;;4909827;29;20032;-95
2021/07/04 06:40:41;;;;;;;6.38;4.60;;;24.90;99.90;;;;;;4904599;29;20037;-96
2021/07/04 06:43:06;;;;;;;4.97;4.47;;;24.90;99.90;;;;;;4903860;29;20534;-96
2021/07/04 06:45:32;;;;;;;4.63;4.20;;;24.90;99.90;;;;;;4890526;29;20068;-95
2021/07/04 06:47:58;;;;;;;4.07;3.65;;;24.90;99.90;;;;;;4912568;29;20468;-96
2021/07/04 06:50:26;;;;;;;4.60;4.20;;;24.90;99.90;;;;;;4909230;29;20063;-96
2021/07/04 06:52:52;;;;;;;4.35;3.95;;;24.90;99.90;;;;;;4904646;29;20040;-96
2021/07/04 06:55:19;;;;;;;4.18;3.78;;;24.90;99.90;;;;;;4906074;29;20439;-96
2021/07/04 06:57:46;;;;;;;4.18;3.78;;;24.90;99.90;;;;;;4905741;29;20100;-95
2021/07/04 07:00:16;;;;;;;3.90;3.45;;;24.90;99.90;;;;;;4909230;29;20040;-96
2021/07/04 07:02:48;;;;;;;3.63;3.33;;;24.90;99.90;;;;;;4910361;29;20551;-94
2021/07/04 07:05:15;;;;;;;2.95;2.70;;;24.90;99.90;;;;;;4907322;29;20032;-96
2021/07/04 07:07:43;;;;;;;3.45;3.15;;;24.90;99.90;;;;;;4909808;29;20033;-93
2021/07/04 07:10:10;;;;;;;2.95;2.72;;;24.90;99.90;;;;;;4916473;29;20534;-94
2021/07/04 07:12:38;;;;;;;2.80;2.60;;;24.90;99.90;;;;;;4914044;29;20056;-96
2021/07/04 07:15:05;;;;;;;3.00;2.60;;;24.90;99.90;;;;;;4905921;29;20037;-95
2021/07/04 07:17:30;;;;;;;2.60;2.40;;;24.90;99.90;;;;;;4900666;29;20123;-96
2021/07/04 07:19:56;;;;;;;2.40;2.20;;;24.90;99.90;;;;;;4899839;29;20479;-95
2021/07/04 07:22:22;;;;;;;2.50;2.30;;;24.90;99.90;;;;;;4899588;29;20073;-95
2021/07/04 07:24:49;;;;;;;2.33;2.13;;;24.90;99.90;;;;;;4899044;29;20039;-96
2021/07/04 07:27:15;;;;;;;2.42;2.22;;;24.90;99.90;;;;;;4883836;29;20041;-95
2021/07/04 07:29:41;;;;;;;2.70;2.50;;;24.90;99.90;;;;;;4900112;29;20074;-94
2021/07/04 07:32:07;;;;;;;2.38;2.17;;;24.90;99.90;;;;;;4899978;29;20101;-94
2021/07/04 07:34:33;;;;;;;2.03;1.88;;;24.90;99.90;;;;;;4898850;29;20033;-94
2021/07/04 07:36:59;;;;;;;2.10;1.92;;;24.90;99.90;;;;;;4899050;29;20035;-94
2021/07/04 07:39:25;;;;;;;2.00;1.90;;;24.90;99.90;;;;;;4899498;29;20036;-94
2021/07/04 07:41:50;;;;;;;2.13;1.92;;;24.90;99.90;;;;;;4885357;29;20040;-95
2021/07/04 07:44:17;;;;;;;2.53;2.20;;;24.90;99.90;;;;;;4899628;29;20033;-96
2021/07/04 07:46:43;;;;;;;2.03;1.83;;;24.90;99.90;;;;;;4900861;29;20036;-95
2021/07/04 07:49:08;;;;;;;1.60;1.50;;;24.90;99.90;;;;;;4898644;29;20040;-94
2021/07/04 07:51:35;;;;;;;2.00;1.80;;;25.00;99.90;;;;;;4879401;29;20072;-94
2021/07/04 07:54:01;;;;;;;1.77;1.67;;;25.00;99.90;;;;;;4900440;29;20044;-96
2021/07/04 07:56:26;;;;;;;1.63;1.52;;;25.00;99.90;;;;;;4902126;29;20044;-94
2021/07/04 07:58:52;;;;;;;1.80;1.70;;;25.00;99.90;;;;;;4900982;29;20092;-94
2021/07/04 08:01:18;;;;;;;1.50;1.40;;;25.00;99.90;;;;;;4903000;29;20044;-95
2021/07/04 08:03:44;;;;;;;1.60;1.50;;;25.00;99.90;;;;;;4903044;29;20060;-94
2021/07/04 08:06:11;;;;;;;1.40;1.30;;;25.00;99.90;;;;;;4901762;29;20490;-94
2021/07/04 08:08:36;;;;;;;1.23;1.13;;;25.00;99.90;;;;;;4908522;29;20084;-95
2021/07/04 08:11:03;;;;;;;1.30;1.20;;;25.00;99.90;;;;;;4905741;29;20403;-95
2021/07/04 08:13:29;;;;;;;1.55;1.45;;;25.00;99.90;;;;;;4904550;29;20035;-96
2021/07/04 08:15:55;;;;;;;1.23;1.13;;;25.00;99.90;;;;;;4916818;29;20032;-95
2021/07/04 08:18:21;;;;;;;1.20;1.10;;;25.10;99.90;;;;;;4920306;29;20040;-95
2021/07/04 08:20:47;;;;;;;1.10;1.00;;;25.10;99.90;;;;;;4923275;29;20144;-96
2021/07/04 08:23:13;;;;;;;1.25;1.15;;;25.10;99.90;;;;;;4900419;29;20081;-94
2021/07/04 08:25:39;;;;;;;0.80;0.80;;;25.10;99.90;;;;;;4907132;29;20033;-96
2021/07/04 08:28:05;;;;;;;1.27;1.17;;;25.10;99.90;;;;;;4903876;29;20033;-95
2021/07/04 08:30:33;;;;;;;1.13;1.02;;;25.10;99.90;;;;;;4902948;29;20040;-95
2021/07/04 08:32:59;;;;;;;0.80;0.80;;;25.10;99.90;;;;;;4902394;29;20064;-96
2021/07/04 08:35:24;;;;;;;0.88;0.88;;;25.10;99.90;;;;;;4903684;29;20024;-95
2021/07/04 08:37:50;;;;;;;1.20;1.10;;;25.10;99.90;;;;;;4902051;29;20028;-91
2021/07/04 08:40:16;;;;;;;1.00;0.90;;;25.10;99.90;;;;;;4902802;29;20496;-93
2021/07/04 08:42:41;;;;;;;0.90;0.90;;;25.10;99.90;;;;;;4901531;29;20028;-93
2021/07/04 08:45:08;;;;;;;0.77;0.77;;;25.20;99.90;;;;;;4885849;29;20101;-93
2021/07/04 08:47:34;;;;;;;1.00;1.00;;;25.20;99.90;;;;;;4885632;29;20100;-94
2021/07/04 08:49:59;;;;;;;0.95;0.80;;;25.10;99.90;;;;;;4900735;29;20028;-94
2021/07/04 08:52:25;;;;;;;0.95;0.80;;;25.20;99.90;;;;;;4886124;29;20056;-96
2021/07/04 08:54:52;;;;;;;0.88;0.88;;;25.10;99.90;;;;;;4886083;29;20059;-94
2021/07/04 08:57:18;;;;;;;1.10;1.00;;;25.10;99.90;;;;;;4909356;29;20028;-93
2021/07/04 08:59:46;;;;;;;1.00;0.95;;;25.10;99.90;;;;;;4910561;29;20089;-93
2021/07/04 09:02:15;;;;;;;0.98;0.98;;;25.10;99.90;;;;;;4897437;29;20040;-95
2021/07/04 09:05:03;;;;;;;0.90;0.90;;;25.10;99.90;;;;;;4895720;29;20055;-94
2021/07/04 09:07:31;;;;;;;0.80;0.80;;;25.10;99.90;;;;;;4895804;29;20076;-95
2021/07/04 09:10:05;;;;;;;0.85;0.85;;;25.10;99.90;;;;;;4900551;29;20119;-93
2021/07/04 09:12:36;;;;;;;1.00;1.00;;;25.10;99.90;;;;;;4901558;29;20025;-93
2021/07/04 09:15:12;;;;;;;0.98;0.98;;;25.10;99.90;;;;;;4901085;29;20032;-93
2021/07/04 09:17:39;;;;;;;0.82;0.82;;;25.10;99.90;;;;;;4905424;29;20028;-94
2021/07/04 09:20:10;;;;;;;1.10;1.00;;;25.10;99.90;;;;;;4885038;29;20037;-94
2021/07/04 09:22:39;;;;;;;1.00;0.95;;;25.10;99.90;;;;;;4901858;29;20024;-95
2021/07/04 09:25:15;;;;;;;0.80;0.80;;;25.10;99.90;;;;;;4902175;29;20464;-94
2021/07/04 09:28:04;;;;;;;1.10;1.02;;;25.20;99.90;;;;;;4902758;29;20047;-93
2021/07/04 09:33:40;;;;;;;0.98;0.98;;;25.10;99.90;;;;;;4905064;29;20460;-92
2021/07/04 09:36:08;;;;;;;1.30;1.20;;;25.10;99.90;;;;;;4900010;29;20032;-95
2021/07/04 09:38:41;;;;;;;1.08;1.00;;;25.10;99.90;;;;;;4901038;29;20478;-93
2021/07/04 09:41:09;;;;;;;1.33;1.23;;;25.10;99.90;;;;;;4900932;29;20463;-93
2021/07/04 09:43:36;;;;;;;0.70;0.70;;;25.10;99.90;;;;;;4903859;29;20020;-93
2021/07/04 09:46:04;;;;;;;1.05;0.93;;;25.10;99.90;;;;;;4906552;29;20080;-93
2021/07/04 09:48:30;;;;;;;1.20;1.10;;;25.10;99.90;;;;;;4900880;29;20035;-93
2021/07/04 09:50:58;;;;;;;1.00;0.90;;;25.20;99.90;;;;;;4900114;29;20032;-93
2021/07/04 09:53:35;;;;;;;1.10;1.00;;;25.10;99.90;;;;;;4899545;29;20467;-93
2021/07/04 09:58:37;;;;;;;1.20;1.10;;;25.10;99.90;;;;;;5328828;23;19923;-96
2021/07/04 10:01:03;;;;;;;1.20;1.10;;;25.20;99.90;;;;;;4938718;23;20080;-93
2021/07/04 10:03:28;;;;;;;1.23;1.13;;;25.20;99.90;;;;;;4887794;29;20033;-94
2021/07/04 10:05:54;;;;;;;1.25;1.15;;;25.20;99.90;;;;;;4868813;29;20036;-92
2021/07/04 10:08:30;;;;;;;1.00;1.00;;;25.20;99.90;;;;;;4888943;29;20040;-93
2021/07/04 10:11:02;;;;;;;0.80;0.80;;;25.20;99.90;;;;;;4888567;29;20127;-94
2021/07/04 10:13:32;;;;;;;1.00;0.90;;;25.20;99.90;;;;;;4912246;29;20033;-94
2021/07/04 10:15:58;;;;;;;0.82;0.82;;;25.20;99.90;;;;;;4892504;29;20088;-94
2021/07/04 10:18:24;;;;;;;0.70;0.70;;;25.20;99.90;;;;;;4904484;29;20025;-94
2021/07/04 10:20:51;;;;;;;0.80;0.80;;;25.20;99.90;;;;;;4875343;29;20056;-94
2021/07/04 10:23:19;;;;;;;0.80;0.80;;;25.20;99.90;;;;;;4884010;29;20093;-93
2021/07/04 10:25:47;;;;;;;0.80;0.80;;;25.20;99.90;;;;;;4883560;29;20032;-94
2021/07/04 10:28:16;;;;;;;0.75;0.75;;;25.20;99.90;;;;;;4868190;29;20485;-94
2021/07/04 10:30:42;;;;;;;0.80;0.80;;;25.20;99.90;;;;;;4883824;29;20040;-94
2021/07/04 10:33:20;;;;;;;0.70;0.70;;;25.20;99.90;;;;;;4883189;29;20387;-93
2021/07/04 10:36:02;;;;;;;0.90;0.90;;;25.30;99.90;;;;;;4882932;29;20038;-94
2021/07/04 10:38:58;;;;;;;1.05;0.95;;;25.30;99.90;;;;;;4867852;29;20033;-92
2021/07/04 10:41:34;;;;;;;0.80;0.80;;;25.30;99.90;;;;;;4867640;29;20040;-94
2021/07/04 10:44:08;;;;;;;1.08;0.98;;;25.20;99.90;;;;;;4883012;29;20029;-93
2021/07/04 10:46:43;;;;;;;0.77;0.77;;;25.30;99.90;;;;;;4883312;29;20108;-93
2021/07/04 10:49:14;;;;;;;0.70;0.70;;;25.30;99.90;;;;;;4886079;29;20475;-93
2021/07/04 10:52:04;;;;;;;0.73;0.73;;;25.30;99.90;;;;;;4899432;29;20025;-94
2021/07/04 10:54:44;;;;;;;0.65;0.65;;;25.30;99.90;;;;;;4882568;29;20028;-93
2021/07/04 10:57:22;;;;;;;1.02;0.95;;;25.30;99.90;;;;;;4882682;29;20037;-91
2021/07/04 11:00:00;;;;;;;0.70;0.70;;;25.30;99.90;;;;;;4899533;29;20115;-93
2021/07/04 11:02:46;;;;;;;0.77;0.77;;;25.30;99.90;;;;;;4882838;29;20412;-94
2021/07/04 11:05:14;;;;;;;0.73;0.70;;;25.30;99.90;;;;;;4882630;29;20052;-93
2021/07/04 11:07:52;;;;;;;0.70;0.70;;;25.30;99.90;;;;;;4888894;29;20028;-93
2021/07/04 11:10:29;;;;;;;0.68;0.68;;;25.30;99.90;;;;;;4882836;29;20052;-92
2021/07/04 11:13:17;;;;;;;0.85;0.85;;;25.30;99.90;;;;;;4883943;29;20025;-93
2021/07/04 11:15:45;;;;;;;0.55;0.55;;;25.30;99.90;;;;;;4878772;29;20040;-95
2021/07/04 11:18:13;;;;;;;0.60;0.60;;;25.30;99.90;;;;;;4877631;29;20037;-94
2021/07/04 11:20:38;;;;;;;0.70;0.70;;;25.30;99.90;;;;;;4884977;29;20028;-95
2021/07/04 11:23:19;;;;;;;0.90;0.90;;;25.30;99.90;;;;;;4883829;29;20076;-94
2021/07/04 11:25:47;;;;;;;0.60;0.60;;;25.30;99.90;;;;;;4883645;29;20435;-93
2021/07/04 11:28:16;;;;;;;0.60;0.60;;;25.30;99.90;;;;;;4883153;29;20108;-90
2021/07/04 11:30:43;;;;;;;1.02;0.93;;;25.30;99.90;;;;;;4883393;29;20028;-95
2021/07/04 11:33:29;;;;;;;0.60;0.60;;;25.30;99.90;;;;;;4899891;29;20035;-96
2021/07/04 11:36:20;;;;;;;0.70;0.70;;;25.40;99.90;;;;;;4906230;29;20036;-95
2021/07/04 11:38:56;;;;;;;0.70;0.70;;;25.40;99.90;;;;;;4889374;29;20025;-96
2021/07/04 11:41:39;;;;;;;0.85;0.77;;;25.40;99.90;;;;;;4904294;29;20028;-94
2021/07/04 11:44:10;;;;;;;0.85;0.73;;;25.40;99.90;;;;;;4905870;29;20103;-94
2021/07/04 11:46:39;;;;;;;0.70;0.70;;;25.30;99.90;;;;;;4907790;29;20051;-95
2021/07/04 11:49:17;;;;;;;0.70;0.70;;;25.40;99.90;;;;;;4894173;29;20542;-95
2021/07/04 11:51:52;;;;;;;0.70;0.70;;;25.40;99.90;;;;;;4891585;29;20408;-95
2021/07/04 11:54:23;;;;;;;0.70;0.70;;;25.40;99.90;;;;;;4889675;29;20033;-92
2021/07/04 12:00:02;;;;;;;0.85;0.85;;;25.40;99.90;;;;;;4905850;29;20063;-95
2021/07/04 12:02:28;;;;;;;0.80;0.80;;;25.30;99.90;;;;;;4908102;29;20039;-94
2021/07/04 12:04:55;;;;;;;0.70;0.70;;;25.30;99.90;;;;;;4889715;29;20505;-94
2021/07/04 12:07:25;;;;;;;1.00;0.90;;;25.40;99.90;;;;;;4889595;29;20067;-94
2021/07/04 12:10:00;;;;;;;1.38;1.00;;;25.40;99.90;;;;;;4905574;29;20494;-95
2021/07/04 12:12:27;;;;;;;1.17;1.08;;;25.40;99.90;;;;;;4888327;29;20471;-94
2021/07/04 12:15:13;;;;;;;1.10;1.00;;;25.40;99.90;;;;;;4889068;29;20040;-95
2021/07/04 12:17:41;;;;;;;1.17;1.08;;;25.40;99.90;;;;;;4904929;29;20051;-95
2021/07/04 12:20:17;;;;;;;0.93;0.93;;;25.40;99.90;;;;;;4905710;29;20481;-95
2021/07/04 12:22:54;;;;;;;0.80;0.80;;;25.40;99.90;;;;;;4891137;29;20025;-94
2021/07/04 12:25:30;;;;;;;0.90;0.90;;;25.40;99.90;;;;;;4893048;29;20036;-96
2021/07/04 12:27:57;;;;;;;1.13;1.08;;;25.40;99.90;;;;;;4905907;29;20028;-94
2021/07/04 12:30:24;;;;;;;0.80;0.80;;;25.40;99.90;;;;;;4888588;29;20028;-92
2021/07/04 12:32:55;;;;;;;0.60;0.60;;;25.40;99.90;;;;;;4905561;29;20040;-94
2021/07/04 12:35:25;;;;;;;1.10;1.00;;;25.40;99.90;;;;;;4888479;29;20032;-95
2021/07/04 12:37:53;;;;;;;0.80;0.80;;;25.40;99.90;;;;;;4909014;29;20037;-95
2021/07/04 12:40:23;;;;;;;0.80;0.80;;;25.40;99.90;;;;;;4890182;29;20466;-95
2021/07/04 12:42:48;;;;;;;1.15;0.85;;;25.50;99.90;;;;;;4889407;29;20041;-94
2021/07/04 12:45:30;;;;;;;0.80;0.80;;;25.50;99.90;;;;;;4889429;29;20048;-95
2021/07/04 12:48:06;;;;;;;1.00;0.90;;;25.50;99.90;;;;;;4880029;29;20037;-94
2021/07/04 12:50:38;;;;;;;1.27;1.00;;;25.50;99.90;;;;;;4905410;29;20036;-95
2021/07/04 12:53:04;;;;;;;1.20;1.10;;;25.50;99.90;;;;;;4909094;29;20024;-94
2021/07/04 12:55:40;;;;;;;0.70;0.70;;;25.50;99.90;;;;;;4891918;29;20036;-93
2021/07/04 12:58:31;;;;;;;1.00;0.90;;;25.50;99.90;;;;;;4893801;29;20029;-93
2021/07/04 13:01:19;;;;;;;0.68;0.68;;;25.50;99.90;;;;;;4875325;29;20076;-94
2021/07/04 13:03:49;;;;;;;0.88;0.88;;;25.50;99.90;;;;;;4869095;29;20032;-94
2021/07/04 13:06:37;;;;;;;0.60;0.60;;;25.50;99.90;;;;;;4865484;29;20128;-92
2021/07/04 13:09:09;;;;;;;0.80;0.80;;;25.50;99.90;;;;;;4867301;29;20029;-95